createdAt,value
2022-08-04T00:00:07.256Z,100.00
2022-08-04T00:02:56.744Z,100.00
2022-08-04T00:05:34.320Z,100.00
2022-08-04T00:08:11.217Z,100.00
2022-08-04T00:10:41.773Z,100.00
2022-08-04T00:13:11.605Z,100.00
2022-08-04T00:15:42.566Z,100.00
2022-08-04T00:18:15.294Z,100.00
2022-08-04T00:20:43.789Z,100.00
2022-08-04T00:23:12.445Z,100.00
2022-08-04T00:25:41.006Z,100.00
2022-08-04T00:28:09.294Z,100.00
2022-08-04T00:30:37.412Z,100.00
2022-08-04T00:33:07.604Z,100.00
2022-08-04T00:35:36.215Z,100.00
2022-08-04T00:38:05.113Z,100.00
2022-08-04T00:40:42.564Z,100.00
2022-08-04T00:43:17.939Z,100.00
2022-08-04T00:46:25.026Z,100.00
2022-08-04T00:49:25.026Z,100.00
2022-08-04T00:52:31.896Z,100.00
2022-08-04T00:55:07.098Z,100.00
2022-08-04T00:58:06.318Z,100.00
2022-08-04T01:00:48.513Z,100.00
2022-08-04T01:03:26.006Z,100.00
2022-08-04T01:06:05.759Z,100.00
2022-08-04T01:08:52.948Z,100.00
2022-08-04T01:11:31.800Z,100.00
2022-08-04T01:14:35.625Z,100.00
2022-08-04T01:17:15.005Z,100.00
2022-08-04T01:20:00.956Z,100.00
2022-08-04T01:23:18.711Z,100.00
2022-08-04T01:26:43.625Z,100.00
2022-08-04T01:29:16.157Z,100.00
2022-08-04T01:32:01.742Z,100.00
2022-08-04T01:34:34.046Z,100.00
2022-08-04T01:37:10.629Z,100.00
2022-08-04T01:39:49.770Z,100.00
2022-08-04T01:42:31.469Z,100.00
2022-08-04T01:45:05.181Z,100.00
2022-08-04T01:47:36.681Z,100.00
2022-08-04T01:50:05.949Z,100.00
2022-08-04T01:52:35.796Z,100.00
2022-08-04T01:55:05.443Z,100.00
2022-08-04T01:57:38.806Z,100.00
2022-08-04T02:00:11.464Z,100.00
2022-08-04T02:02:39.510Z,100.00
2022-08-04T02:05:10.428Z,100.00
2022-08-04T02:07:48.215Z,100.00
2022-08-04T02:10:27.050Z,100.00
2022-08-04T02:13:02.185Z,100.00
2022-08-04T02:15:42.756Z,100.00
2022-08-04T02:18:16.270Z,100.00
2022-08-04T02:20:46.109Z,100.00
2022-08-04T02:23:16.499Z,100.00
2022-08-04T02:25:47.843Z,100.00
2022-08-04T02:28:26.723Z,100.00
2022-08-04T02:31:13.704Z,100.00
2022-08-04T02:33:44.127Z,100.00
2022-08-04T02:36:16.745Z,100.00
2022-08-04T02:38:56.173Z,100.00
2022-08-04T02:41:26.281Z,100.00
2022-08-04T02:43:58.877Z,100.00
2022-08-04T02:46:29.290Z,100.00
2022-08-04T02:48:57.202Z,100.00
2022-08-04T02:51:28.319Z,100.00
2022-08-04T02:53:57.459Z,100.00
2022-08-04T02:56:28.403Z,100.00
2022-08-04T02:59:00.009Z,100.00
2022-08-04T03:01:29.878Z,100.00
2022-08-04T03:04:13.395Z,100.00
2022-08-04T03:07:27.706Z,100.00
2022-08-04T03:10:38.298Z,100.00
2022-08-04T03:13:35.464Z,100.00
2022-08-04T03:16:44.246Z,100.00
2022-08-04T03:19:46.631Z,100.00
2022-08-04T03:22:33.353Z,100.00
2022-08-04T03:25:56.819Z,100.00
2022-08-04T03:28:56.549Z,100.00
2022-08-04T03:31:54.781Z,100.00
2022-08-04T03:34:53.562Z,100.00
2022-08-04T03:37:37.399Z,100.00
2022-08-04T03:40:32.836Z,100.00
2022-08-04T03:43:57.314Z,100.00
2022-08-04T03:47:01.859Z,100.00
2022-08-04T03:50:07.577Z,100.00
2022-08-04T03:53:09.370Z,100.00
2022-08-04T03:56:25.828Z,100.00
2022-08-04T03:59:17.751Z,100.00
2022-08-04T04:02:10.592Z,100.00
2022-08-04T04:05:13.772Z,100.00
2022-08-04T04:08:16.450Z,100.00
2022-08-04T04:11:22.417Z,100.00
2022-08-04T04:14:11.895Z,100.00
2022-08-04T04:16:51.547Z,100.00
2022-08-04T04:19:48.972Z,100.00
2022-08-04T04:22:33.146Z,100.00
2022-08-04T04:25:21.880Z,100.00
2022-08-04T04:28:44.341Z,100.00
2022-08-04T04:31:12.391Z,100.00
2022-08-04T04:33:48.145Z,100.00
2022-08-04T04:36:24.732Z,100.00
2022-08-04T04:39:03.500Z,100.00
2022-08-04T04:42:02.143Z,100.00
2022-08-04T04:45:03.213Z,100.00
2022-08-04T04:48:07.084Z,100.00
2022-08-04T04:50:40.953Z,100.00
2022-08-04T04:53:18.374Z,100.00
2022-08-04T04:55:59.585Z,100.00
2022-08-04T04:58:33.738Z,100.00
2022-08-04T05:01:42.884Z,100.00
2022-08-04T05:04:40.416Z,100.00
2022-08-04T05:07:40.258Z,100.00
2022-08-04T05:10:23.384Z,100.00
2022-08-04T05:14:34.997Z,100.00
2022-08-04T05:15:55.844Z,100.00
2022-08-04T05:18:30.888Z,100.00
2022-08-04T05:21:10.232Z,100.00
2022-08-04T05:23:47.123Z,100.00
2022-08-04T05:26:18.966Z,100.00
2022-08-04T05:28:53.649Z,100.00
2022-08-04T05:31:27.438Z,100.00
2022-08-04T05:33:59.594Z,100.00
2022-08-04T05:36:41.044Z,100.00
2022-08-04T05:39:15.115Z,100.00
2022-08-04T05:41:46.168Z,100.00
2022-08-04T05:44:24.906Z,100.00
2022-08-04T05:46:57.298Z,100.00
2022-08-04T05:49:27.536Z,100.00
2022-08-04T05:51:58.601Z,100.00
2022-08-04T05:54:27.857Z,100.00
2022-08-04T05:56:57.288Z,100.00
2022-08-04T05:59:26.929Z,100.00
2022-08-04T06:02:00.133Z,100.00
2022-08-04T06:04:35.498Z,100.00
2022-08-04T06:07:05.005Z,100.00
2022-08-04T06:09:33.009Z,100.00
2022-08-04T06:12:04.266Z,100.00
2022-08-04T06:14:38.242Z,100.00
2022-08-04T06:18:33.262Z,100.00
2022-08-04T06:20:19.911Z,100.00
2022-08-04T06:22:52.652Z,100.00
2022-08-04T06:25:24.222Z,100.00
2022-08-04T06:27:54.624Z,100.00
2022-08-04T06:30:24.170Z,100.00
2022-08-04T06:32:54.643Z,100.00
2022-08-04T06:35:33.253Z,100.00
2022-08-04T06:38:02.263Z,100.00
2022-08-04T06:40:33.829Z,100.00
2022-08-04T06:43:05.085Z,100.00
2022-08-04T06:45:34.057Z,100.00
2022-08-04T06:48:05.208Z,100.00
2022-08-04T06:51:29.474Z,100.00
2022-08-04T06:53:27.263Z,100.00
2022-08-04T06:55:57.262Z,100.00
2022-08-04T06:58:25.591Z,100.00
2022-08-04T07:00:55.024Z,100.00
2022-08-04T07:03:24.324Z,100.00
2022-08-04T07:05:52.660Z,100.00
2022-08-04T07:08:21.989Z,100.00
2022-08-04T07:10:50.768Z,100.00
2022-08-04T07:13:21.200Z,100.00
2022-08-04T07:15:49.962Z,100.00
2022-08-04T07:18:17.956Z,100.00
2022-08-04T07:20:47.370Z,100.00
2022-08-04T07:23:16.342Z,100.00
2022-08-04T07:26:00.915Z,100.00
2022-08-04T07:28:32.335Z,100.00
2022-08-04T07:31:02.272Z,100.00
2022-08-04T07:33:30.653Z,100.00
2022-08-04T07:36:05.070Z,100.00
2022-08-04T07:38:46.392Z,100.00
2022-08-04T07:41:37.550Z,100.00
2022-08-04T07:44:05.951Z,100.00
2022-08-04T07:46:34.064Z,100.00
2022-08-04T07:49:01.825Z,100.00
2022-08-04T07:51:31.973Z,100.00
2022-08-04T07:54:00.688Z,100.00
2022-08-04T07:56:29.032Z,100.00
2022-08-04T07:58:56.824Z,100.00
2022-08-04T08:01:25.183Z,100.00
2022-08-04T08:03:55.418Z,100.00
2022-08-04T08:06:33.028Z,100.00
2022-08-04T08:09:13.576Z,100.00
2022-08-04T08:12:37.367Z,100.00
2022-08-04T08:14:31.485Z,100.00
2022-08-04T08:16:59.794Z,100.00
2022-08-04T08:19:27.516Z,100.00
2022-08-04T08:21:59.808Z,98.63
2022-08-04T08:24:29.786Z,97.92
2022-08-04T08:26:57.824Z,96.26
2022-08-04T08:29:26.864Z,94.45
2022-08-04T08:31:56.620Z,94.89
2022-08-04T08:34:29.095Z,93.08
2022-08-04T08:37:02.998Z,93.33
2022-08-04T08:39:38.996Z,91.99
2022-08-04T08:42:38.993Z,91.82
2022-08-04T08:45:43.347Z,92.44
2022-08-04T08:48:33.465Z,90.71
2022-08-04T08:51:35.044Z,90.97
2022-08-04T08:54:30.806Z,91.34
2022-08-04T08:57:12.387Z,91.06
2022-08-04T08:59:53.464Z,90.58
2022-08-04T09:03:04.849Z,88.94
2022-08-04T09:05:57.653Z,88.16
2022-08-04T09:08:55.842Z,88.12
2022-08-04T09:11:27.895Z,85.47
2022-08-04T09:14:02.303Z,84.84
2022-08-04T09:16:37.114Z,84.81
2022-08-04T09:19:22.655Z,84.40
2022-08-04T09:22:12.670Z,85.01
2022-08-04T09:24:49.743Z,85.36
2022-08-04T09:27:20.241Z,84.91
2022-08-04T09:29:57.560Z,81.69
2022-08-04T09:32:34.898Z,81.79
2022-08-04T09:35:15.669Z,80.64
2022-08-04T09:37:49.049Z,80.03
2022-08-04T09:40:31.071Z,80.13
2022-08-04T09:43:13.268Z,79.24
2022-08-04T09:45:53.574Z,77.08
2022-08-04T09:48:32.675Z,78.58
2022-08-04T09:51:02.356Z,77.75
2022-08-04T09:53:46.172Z,79.72
2022-08-04T09:56:23.489Z,75.40
2022-08-04T09:59:01.614Z,76.62
2022-08-04T10:01:31.556Z,74.37
2022-08-04T10:04:02.045Z,72.69
2022-08-04T10:07:03.145Z,73.47
2022-08-04T10:09:57.590Z,74.40
2022-08-04T10:12:36.055Z,71.63
2022-08-04T10:15:10.794Z,71.98
2022-08-04T10:18:00.083Z,73.93
2022-08-04T10:20:45.709Z,69.02
2022-08-04T10:23:23.937Z,69.34
2022-08-04T10:26:06.816Z,70.59
2022-08-04T10:28:41.888Z,72.85
2022-08-04T10:31:13.340Z,67.90
2022-08-04T10:33:52.738Z,67.53
2022-08-04T10:36:26.539Z,68.13
2022-08-04T10:39:01.664Z,69.69
2022-08-04T10:41:35.830Z,70.32
2022-08-04T10:44:16.204Z,68.03
2022-08-04T10:46:47.824Z,67.47
2022-08-04T10:49:23.325Z,64.91
2022-08-04T10:51:58.005Z,66.68
2022-08-04T10:54:33.355Z,65.80
2022-08-04T10:57:07.057Z,65.85
2022-08-04T10:59:40.985Z,63.00
2022-08-04T11:02:20.576Z,63.22
2022-08-04T11:04:58.219Z,64.73
2022-08-04T11:07:30.499Z,64.33
2022-08-04T11:09:58.401Z,64.12
2022-08-04T11:12:27.427Z,65.78
2022-08-04T11:15:00.295Z,66.05
2022-08-04T11:17:31.684Z,67.79
2022-08-04T11:20:34.066Z,64.85
2022-08-04T11:23:05.904Z,62.68
2022-08-04T11:25:40.287Z,63.09
2022-08-04T11:28:19.079Z,62.30
2022-08-04T11:30:53.077Z,62.84
2022-08-04T11:33:31.811Z,63.70
2022-08-04T11:36:14.401Z,62.23
2022-08-04T11:38:51.814Z,63.38
2022-08-04T11:41:31.042Z,62.90
2022-08-04T11:44:01.766Z,62.75
2022-08-04T11:46:39.638Z,63.15
2022-08-04T11:49:11.803Z,62.72
2022-08-04T11:51:43.344Z,62.33
2022-08-04T11:54:12.673Z,62.29
2022-08-04T11:56:40.459Z,60.90
2022-08-04T11:59:08.216Z,62.91
2022-08-04T12:01:50.565Z,60.61
2022-08-04T12:04:28.485Z,59.21
2022-08-04T12:07:30.394Z,59.53
2022-08-04T12:10:04.264Z,58.44
2022-08-04T12:12:39.293Z,59.89
2022-08-04T12:15:16.751Z,57.36
2022-08-04T12:17:54.475Z,57.35
2022-08-04T12:20:40.418Z,59.04
2022-08-04T12:23:17.652Z,61.36
2022-08-04T12:25:48.988Z,57.82
2022-08-04T12:28:18.380Z,57.06
2022-08-04T12:31:01.035Z,58.59
2022-08-04T12:34:03.841Z,56.38
2022-08-04T12:36:33.603Z,56.93
2022-08-04T12:39:10.327Z,55.45
2022-08-04T12:41:42.467Z,55.69
2022-08-04T12:44:36.694Z,57.60
2022-08-04T12:47:27.095Z,58.13
2022-08-04T12:50:01.047Z,58.49
2022-08-04T12:52:59.161Z,57.35
2022-08-04T12:55:23.595Z,57.80
2022-08-04T12:57:52.787Z,58.68
2022-08-04T13:00:29.586Z,58.89
2022-08-04T13:03:09.719Z,58.95
2022-08-04T13:05:39.958Z,59.95
2022-08-04T13:08:10.240Z,61.18
2022-08-04T13:10:42.041Z,60.23
2022-08-04T13:13:17.244Z,61.84
2022-08-04T13:15:56.760Z,61.24
2022-08-04T13:18:30.117Z,61.08
2022-08-04T13:21:19.781Z,62.91
2022-08-04T13:24:19.661Z,63.97
2022-08-04T13:26:55.463Z,65.34
2022-08-04T13:29:58.719Z,62.58
2022-08-04T13:32:17.037Z,64.07
2022-08-04T13:34:49.446Z,63.21
2022-08-04T13:37:27.147Z,62.31
2022-08-04T13:39:58.272Z,62.75
2022-08-04T13:42:28.241Z,62.15
2022-08-04T13:44:58.435Z,66.14
2022-08-04T13:47:30.359Z,63.47
2022-08-04T13:50:15.784Z,63.26
2022-08-04T13:52:45.127Z,63.06
2022-08-04T13:55:22.384Z,62.87
2022-08-04T13:57:57.347Z,62.55
2022-08-04T14:00:29.787Z,60.47
2022-08-04T14:03:23.678Z,60.15
2022-08-04T14:06:15.613Z,61.69
2022-08-04T14:08:49.417Z,60.24
2022-08-04T14:12:10.044Z,61.80
2022-08-04T14:14:23.055Z,63.50
2022-08-04T14:17:03.026Z,64.90
2022-08-04T14:19:49.836Z,64.71
2022-08-04T14:22:35.802Z,64.47
2022-08-04T14:25:07.646Z,65.28
2022-08-04T14:27:43.448Z,66.84
2022-08-04T14:30:29.642Z,67.94
2022-08-04T14:34:04.805Z,69.68
2022-08-04T14:35:57.113Z,70.72
2022-08-04T14:38:25.071Z,72.20
2022-08-04T14:40:59.986Z,72.23
2022-08-04T14:43:29.868Z,72.55
2022-08-04T14:46:05.789Z,76.55
2022-08-04T14:48:33.744Z,75.67
2022-08-04T14:51:01.529Z,74.79
2022-08-04T14:53:29.401Z,75.53
2022-08-04T14:55:59.422Z,73.66
2022-08-04T14:58:33.800Z,71.56
2022-08-04T15:01:10.377Z,68.46
2022-08-04T15:03:50.341Z,66.63
2022-08-04T15:07:04.811Z,64.88
2022-08-04T15:09:33.180Z,63.66
2022-08-04T15:12:02.295Z,65.80
2022-08-04T15:14:36.724Z,65.25
2022-08-04T15:17:22.707Z,63.81
2022-08-04T15:19:56.712Z,63.80
2022-08-04T15:22:24.689Z,63.35
2022-08-04T15:24:55.580Z,64.34
2022-08-04T15:27:27.533Z,63.88
2022-08-04T15:30:01.986Z,63.47
2022-08-04T15:32:34.220Z,64.11
2022-08-04T15:35:02.877Z,64.91
2022-08-04T15:37:43.142Z,63.36
2022-08-04T15:43:55.537Z,64.00
2022-08-04T15:47:04.645Z,63.42
2022-08-04T15:49:33.985Z,63.86
2022-08-04T15:52:03.186Z,63.84
2022-08-04T15:54:33.184Z,62.15
2022-08-04T15:57:03.271Z,63.33
2022-08-04T16:00:00.624Z,63.31
2022-08-04T16:02:49.720Z,61.88
2022-08-04T16:05:40.181Z,61.75
2022-08-04T16:08:16.254Z,62.17
2022-08-04T16:10:49.063Z,61.68
2022-08-04T16:13:19.914Z,61.60
2022-08-04T16:15:50.432Z,61.65
2022-08-04T16:18:37.424Z,61.75
2022-08-04T16:21:17.879Z,60.41
2022-08-04T16:24:06.656Z,61.21
2022-08-04T16:26:46.331Z,61.35
2022-08-04T16:29:30.845Z,62.66
2022-08-04T16:32:12.412Z,63.14
2022-08-04T16:34:49.931Z,63.09
2022-08-04T16:37:29.184Z,62.67
2022-08-04T16:40:37.501Z,63.31
2022-08-04T16:43:08.384Z,64.09
2022-08-04T16:45:53.528Z,63.83
2022-08-04T16:48:23.875Z,64.70
2022-08-04T16:51:04.546Z,64.41
2022-08-04T16:54:03.442Z,65.80
2022-08-04T16:56:35.046Z,65.98
2022-08-04T16:59:07.492Z,65.98
2022-08-04T17:01:35.919Z,66.38
2022-08-04T17:04:04.627Z,66.84
2022-08-04T17:06:34.749Z,68.00
2022-08-04T17:09:09.957Z,69.96
2022-08-04T17:11:38.011Z,70.64
2022-08-04T17:14:06.719Z,70.77
2022-08-04T17:16:36.527Z,71.58
2022-08-04T17:19:05.526Z,71.08
2022-08-04T17:21:35.009Z,71.96
2022-08-04T17:24:14.060Z,71.36
2022-08-04T17:26:54.153Z,71.61
2022-08-04T17:29:23.324Z,71.50
2022-08-04T17:32:14.038Z,71.83
2022-08-04T17:34:44.559Z,70.76
2022-08-04T17:37:40.137Z,70.86
2022-08-04T17:40:11.135Z,70.40
2022-08-04T17:42:38.947Z,70.32
2022-08-04T17:45:49.372Z,71.04
2022-08-04T17:47:56.859Z,72.00
2022-08-04T17:50:25.218Z,72.36
2022-08-04T17:52:59.699Z,72.35
2022-08-04T17:55:39.728Z,72.90
2022-08-04T17:58:20.854Z,72.81
2022-08-04T18:01:10.718Z,72.97
2022-08-04T18:03:53.039Z,74.00
2022-08-04T18:06:21.944Z,74.54
2022-08-04T18:08:54.814Z,74.80
2022-08-04T18:11:29.499Z,75.58
2022-08-04T18:14:10.536Z,78.07
2022-08-04T18:16:45.123Z,77.60
2022-08-04T18:19:14.791Z,78.11
2022-08-04T18:21:46.912Z,78.15
2022-08-04T18:24:35.005Z,77.51
2022-08-04T18:27:19.776Z,77.90
2022-08-04T18:29:50.196Z,77.30
2022-08-04T18:32:36.258Z,77.43
2022-08-04T18:35:07.370Z,78.35
2022-08-04T18:38:05.233Z,78.69
2022-08-04T18:40:30.207Z,78.87
2022-08-04T18:43:04.674Z,79.49
2022-08-04T18:45:34.286Z,81.35
2022-08-04T18:48:04.277Z,81.86
2022-08-04T18:51:09.224Z,82.10
2022-08-04T18:53:34.996Z,82.80
2022-08-04T18:56:04.269Z,83.19
2022-08-04T18:58:35.683Z,82.62
2022-08-04T19:01:04.647Z,83.71
2022-08-04T19:03:44.216Z,83.68
2022-08-04T19:06:13.093Z,84.85
2022-08-04T19:08:42.666Z,85.04
2022-08-04T19:11:37.371Z,84.58
2022-08-04T19:14:04.390Z,83.13
2022-08-04T19:16:33.798Z,84.46
2022-08-04T19:19:05.553Z,84.90
2022-08-04T19:22:01.499Z,85.04
2022-08-04T19:24:32.460Z,85.49
2022-08-04T19:27:06.527Z,85.87
2022-08-04T19:29:46.218Z,86.52
2022-08-04T19:32:16.353Z,86.63
2022-08-04T19:37:57.756Z,84.86
2022-08-04T19:40:33.520Z,86.92
2022-08-04T19:43:14.529Z,86.54
2022-08-04T19:45:45.764Z,88.15
2022-08-04T19:48:19.415Z,87.48
2022-08-04T19:50:49.643Z,88.65
2022-08-04T19:53:19.257Z,88.08
2022-08-04T19:55:50.058Z,88.63
2022-08-04T19:58:18.416Z,89.20
2022-08-04T20:00:51.858Z,89.55
2022-08-04T20:03:21.082Z,89.55
2022-08-04T20:05:54.011Z,88.99
2022-08-04T20:08:26.815Z,89.13
2022-08-04T20:10:58.199Z,89.20
2022-08-04T20:13:30.965Z,89.45
2022-08-04T20:16:28.391Z,89.55
2022-08-04T20:18:59.479Z,90.87
2022-08-04T20:21:53.726Z,91.09
2022-08-04T20:24:37.559Z,90.49
2022-08-04T20:27:07.781Z,90.68
2022-08-04T20:29:40.352Z,90.94
2022-08-04T20:32:10.275Z,91.51
2022-08-04T20:34:40.045Z,91.04
2022-08-04T20:37:10.328Z,91.00
2022-08-04T20:39:38.454Z,91.90
2022-08-04T20:42:06.836Z,91.33
2022-08-04T20:44:42.221Z,91.82
2022-08-04T20:47:16.085Z,92.03
2022-08-04T20:49:44.101Z,92.44
2022-08-04T20:52:18.113Z,92.15
2022-08-04T20:54:49.276Z,92.21
2022-08-04T20:57:50.518Z,92.27
2022-08-04T21:00:13.147Z,92.82
2022-08-04T21:02:42.614Z,92.80
2022-08-04T21:05:12.685Z,92.34
2022-08-04T21:07:43.868Z,92.16
2022-08-04T21:10:17.127Z,91.40
2022-08-04T21:12:50.009Z,90.95
2022-08-04T21:15:24.747Z,90.68
2022-08-04T21:17:59.075Z,89.94
2022-08-04T21:20:33.268Z,89.83
2022-08-04T21:23:04.909Z,90.16
2022-08-04T21:25:33.230Z,90.45
2022-08-04T21:28:10.243Z,90.98
2022-08-04T21:30:54.764Z,91.35
2022-08-04T21:33:43.925Z,91.18
2022-08-04T21:36:16.177Z,92.35
2022-08-04T21:38:51.490Z,93.33
2022-08-04T21:41:24.693Z,93.09
2022-08-04T21:43:55.639Z,92.67
2022-08-04T21:46:23.883Z,93.22
2022-08-04T21:48:52.992Z,93.64
2022-08-04T21:51:57.754Z,93.71
2022-08-04T21:54:11.630Z,93.68
2022-08-04T21:56:51.583Z,93.41
2022-08-04T21:59:24.010Z,93.09
2022-08-04T22:02:00.851Z,93.09
2022-08-04T22:04:31.033Z,91.91
2022-08-04T22:07:02.913Z,91.82
2022-08-04T22:12:20.968Z,92.48
2022-08-04T22:14:50.432Z,91.86
2022-08-04T22:17:26.449Z,92.89
2022-08-04T22:20:05.005Z,93.88
2022-08-04T22:22:35.422Z,94.42
2022-08-04T22:25:13.125Z,95.15
2022-08-04T22:27:42.695Z,94.77
2022-08-04T22:30:17.066Z,95.33
2022-08-04T22:32:46.249Z,95.96
2022-08-04T22:35:43.358Z,96.66
2022-08-04T22:38:09.430Z,97.06
2022-08-04T22:40:57.267Z,96.87
2022-08-04T22:43:33.162Z,96.10
2022-08-04T22:46:05.026Z,95.19
2022-08-04T22:48:35.593Z,95.58
2022-08-04T22:51:07.154Z,94.66
2022-08-04T22:53:36.342Z,94.58
2022-08-04T22:56:09.552Z,94.51
2022-08-04T22:58:40.112Z,95.47
2022-08-04T23:01:08.683Z,95.53
2022-08-04T23:03:38.626Z,97.06
2022-08-04T23:06:11.753Z,97.61
2022-08-04T23:08:43.197Z,96.86
2022-08-04T23:11:16.379Z,98.02
2022-08-04T23:13:44.323Z,98.02
2022-08-04T23:16:12.180Z,97.96
2022-08-04T23:18:42.028Z,98.45
2022-08-04T23:21:14.244Z,99.05
2022-08-04T23:23:47.684Z,98.21
2022-08-04T23:26:28.997Z,97.93
2022-08-04T23:28:57.132Z,98.06
2022-08-04T23:31:25.361Z,97.18
2022-08-04T23:34:12.258Z,97.24
2022-08-04T23:36:42.515Z,97.05
2022-08-04T23:39:10.539Z,97.62
2022-08-04T23:41:54.419Z,97.89
2022-08-04T23:44:24.326Z,97.77
2022-08-04T23:46:58.406Z,97.47
2022-08-04T23:49:44.213Z,97.16
2022-08-04T23:52:15.975Z,97.56
2022-08-04T23:54:56.323Z,97.64
2022-08-04T23:57:31.328Z,98.12
